createdAt,value
2022-10-05T00:00:27.199Z,5.63
2022-10-05T00:05:28.421Z,4.95
2022-10-05T00:07:58.542Z,5.82
2022-10-05T00:10:30.055Z,5.45
2022-10-05T00:12:57.194Z,5.65
2022-10-05T00:15:23.725Z,5.53
2022-10-05T00:17:51.492Z,5.30
2022-10-05T00:20:25.134Z,5.43
2022-10-05T00:22:59.610Z,5.40
2022-10-05T00:25:29.851Z,4.90
2022-10-05T00:27:59.049Z,4.97
2022-10-05T00:30:35.292Z,5.28
2022-10-05T00:33:02.388Z,5.25
2022-10-05T00:35:30.831Z,4.53
2022-10-05T00:37:57.820Z,4.53
2022-10-05T00:40:54.961Z,4.73
2022-10-05T00:43:42.955Z,4.57
2022-10-05T00:46:25.763Z,4.78
2022-10-05T00:48:59.024Z,4.72
2022-10-05T00:51:31.194Z,4.40
2022-10-05T00:54:22.339Z,4.55
2022-10-05T00:57:17.054Z,4.13
2022-10-05T00:59:54.010Z,4.40
2022-10-05T01:02:47.794Z,4.23
2022-10-05T01:05:39.896Z,4.35
2022-10-05T01:08:21.930Z,4.53
2022-10-05T01:11:01.086Z,4.47
2022-10-05T01:13:58.448Z,4.57
2022-10-05T01:16:42.685Z,4.35
2022-10-05T01:19:34.267Z,5.10
2022-10-05T01:22:35.774Z,4.90
2022-10-05T01:25:08.544Z,5.70
2022-10-05T01:27:41.730Z,4.65
2022-10-05T01:30:12.990Z,5.07
2022-10-05T01:33:18.202Z,5.07
2022-10-05T01:35:52.642Z,5.22
2022-10-05T01:38:24.165Z,5.22
2022-10-05T01:41:15.433Z,5.20
2022-10-05T01:43:46.039Z,5.05
2022-10-05T01:46:21.947Z,5.70
2022-10-05T01:48:59.362Z,4.93
2022-10-05T01:51:52.865Z,5.28
2022-10-05T01:54:28.399Z,4.80
2022-10-05T01:57:12.869Z,5.38
2022-10-05T02:00:11.721Z,4.88
2022-10-05T02:02:43.710Z,5.18
2022-10-05T02:05:35.610Z,5.03
2022-10-05T02:08:12.446Z,5.78
2022-10-05T02:10:44.905Z,4.60
2022-10-05T02:13:31.128Z,5.15
2022-10-05T02:16:14.150Z,5.28
2022-10-05T02:18:49.638Z,5.57
2022-10-05T02:21:18.053Z,5.50
2022-10-05T02:23:47.433Z,5.32
2022-10-05T02:26:15.639Z,5.32
2022-10-05T02:29:02.404Z,5.90
2022-10-05T02:31:37.270Z,5.47
2022-10-05T02:34:30.317Z,5.57
2022-10-05T02:37:09.141Z,5.35
2022-10-05T02:39:47.674Z,5.82
2022-10-05T02:42:20.299Z,5.53
2022-10-05T02:45:10.131Z,6.18
2022-10-05T02:48:02.656Z,4.95
2022-10-05T02:50:44.316Z,5.18
2022-10-05T02:53:16.766Z,5.13
2022-10-05T02:56:09.712Z,5.55
2022-10-05T02:58:50.281Z,5.40
2022-10-05T03:01:24.799Z,5.53
2022-10-05T03:04:00.284Z,5.22
2022-10-05T03:06:35.427Z,5.43
2022-10-05T03:09:05.283Z,5.03
2022-10-05T03:12:09.444Z,4.82
2022-10-05T03:15:13.494Z,5.03
2022-10-05T03:18:03.441Z,5.10
2022-10-05T03:20:41.248Z,5.28
2022-10-05T03:26:00.166Z,5.97
2022-10-05T03:28:36.212Z,5.45
2022-10-05T03:31:20.139Z,5.35
2022-10-05T03:34:00.679Z,5.85
2022-10-05T03:36:39.287Z,5.70
2022-10-05T03:39:36.123Z,5.15
2022-10-05T03:42:21.088Z,5.13
2022-10-05T03:44:57.827Z,5.68
2022-10-05T03:47:30.408Z,5.57
2022-10-05T03:50:12.308Z,5.50
2022-10-05T03:52:42.431Z,5.43
2022-10-05T03:55:21.604Z,5.18
2022-10-05T03:57:52.566Z,5.50
2022-10-05T04:00:25.294Z,5.53
2022-10-05T04:03:27.256Z,5.43
2022-10-05T04:06:08.602Z,6.00
2022-10-05T04:08:38.257Z,5.22
2022-10-05T04:11:12.362Z,5.78
2022-10-05T04:13:52.111Z,5.40
2022-10-05T04:16:29.560Z,5.22
2022-10-05T04:19:10.571Z,5.50
2022-10-05T04:21:50.704Z,4.90
2022-10-05T04:24:40.698Z,5.18
2022-10-05T04:27:15.230Z,5.03
2022-10-05T04:29:51.084Z,4.80
2022-10-05T04:32:37.341Z,4.90
2022-10-05T04:35:22.716Z,4.65
2022-10-05T04:38:05.813Z,4.30
2022-10-05T04:40:49.988Z,4.30
2022-10-05T04:43:42.270Z,5.35
2022-10-05T04:46:30.489Z,4.30
2022-10-05T04:49:34.798Z,4.47
2022-10-05T04:52:20.105Z,3.95
2022-10-05T04:54:55.530Z,4.00
2022-10-05T04:57:35.621Z,4.63
2022-10-05T05:00:05.736Z,3.95
2022-10-05T05:02:39.549Z,3.97
2022-10-05T05:05:31.664Z,3.90
2022-10-05T05:08:04.631Z,3.78
2022-10-05T05:10:59.056Z,3.40
2022-10-05T05:13:41.991Z,3.33
2022-10-05T05:16:16.169Z,3.05
2022-10-05T05:19:04.835Z,3.70
2022-10-05T05:21:50.468Z,2.72
2022-10-05T05:24:49.294Z,3.00
2022-10-05T05:27:39.298Z,3.40
2022-10-05T05:30:24.942Z,3.00
2022-10-05T05:33:01.799Z,3.00
2022-10-05T05:36:04.813Z,2.97
2022-10-05T05:38:41.093Z,3.25
2022-10-05T05:41:17.449Z,2.72
2022-10-05T05:44:02.276Z,3.17
2022-10-05T05:47:01.573Z,3.05
2022-10-05T05:49:35.745Z,3.78
2022-10-05T05:52:11.351Z,3.22
2022-10-05T05:54:45.042Z,3.45
2022-10-05T05:57:28.075Z,3.80
2022-10-05T06:00:14.783Z,3.90
2022-10-05T06:02:47.249Z,4.13
2022-10-05T06:05:36.247Z,4.20
2022-10-05T06:08:12.354Z,4.28
2022-10-05T06:10:45.409Z,3.97
2022-10-05T06:13:20.147Z,4.55
2022-10-05T06:15:57.611Z,4.35
2022-10-05T06:18:25.916Z,4.70
2022-10-05T06:21:00.843Z,4.88
2022-10-05T06:23:56.294Z,4.45
2022-10-05T06:26:50.464Z,4.10
2022-10-05T06:29:25.135Z,4.32
2022-10-05T06:32:25.915Z,3.90
2022-10-05T06:34:52.493Z,4.07
2022-10-05T06:37:42.180Z,4.30
2022-10-05T06:40:20.985Z,3.90
2022-10-05T06:42:58.122Z,3.85
2022-10-05T06:45:36.078Z,3.78
2022-10-05T06:48:30.483Z,3.58
2022-10-05T06:51:47.885Z,3.85
2022-10-05T06:54:33.085Z,3.70
2022-10-05T06:57:07.105Z,3.78
2022-10-05T06:59:44.228Z,3.13
2022-10-05T07:02:56.004Z,3.40
2022-10-05T07:05:40.903Z,3.30
2022-10-05T07:08:25.975Z,3.40
2022-10-05T07:10:55.405Z,3.50
2022-10-05T07:14:00.454Z,2.88
2022-10-05T07:16:56.715Z,3.40
2022-10-05T07:19:45.973Z,2.92
2022-10-05T07:22:24.708Z,2.80
2022-10-05T07:25:07.808Z,3.45
2022-10-05T07:27:51.784Z,2.90
2022-10-05T07:30:19.091Z,2.88
2022-10-05T07:33:17.946Z,2.97
2022-10-05T07:36:05.818Z,2.88
2022-10-05T07:39:14.308Z,2.83
2022-10-05T07:41:48.222Z,2.60
2022-10-05T07:44:45.849Z,2.58
2022-10-05T07:47:23.602Z,3.22
2022-10-05T07:52:34.500Z,2.65
2022-10-05T07:55:18.952Z,3.10
2022-10-05T07:58:08.777Z,2.67
2022-10-05T08:01:30.017Z,2.85
2022-10-05T08:04:02.515Z,2.92
2022-10-05T08:06:48.789Z,2.88
2022-10-05T08:09:26.952Z,2.70
2022-10-05T08:14:38.413Z,2.42
2022-10-05T08:17:25.587Z,3.05
2022-10-05T08:20:06.176Z,3.00
2022-10-05T08:22:43.716Z,2.95
2022-10-05T08:25:22.400Z,2.90
2022-10-05T08:27:57.016Z,3.17
2022-10-05T08:30:25.790Z,3.17
2022-10-05T08:33:17.315Z,2.50
2022-10-05T08:35:49.068Z,2.70
2022-10-05T08:38:18.645Z,2.80
2022-10-05T08:41:10.498Z,3.28
2022-10-05T08:44:02.670Z,2.90
2022-10-05T08:46:37.965Z,2.80
2022-10-05T08:49:43.124Z,2.50
2022-10-05T08:52:39.078Z,2.92
2022-10-05T08:55:22.913Z,2.90
2022-10-05T08:58:14.049Z,2.58
2022-10-05T09:01:01.988Z,2.58
2022-10-05T09:03:54.361Z,2.70
2022-10-05T09:06:45.417Z,3.00
2022-10-05T09:09:37.701Z,2.45
2022-10-05T09:12:24.793Z,2.40
2022-10-05T09:15:25.686Z,2.58
2022-10-05T09:18:24.239Z,2.30
2022-10-05T09:20:54.266Z,2.42
2022-10-05T09:23:49.165Z,2.53
2022-10-05T09:26:41.018Z,1.98
2022-10-05T09:29:29.613Z,2.35
2022-10-05T09:32:07.050Z,1.90
2022-10-05T09:35:03.833Z,2.05
2022-10-05T09:38:03.461Z,2.60
2022-10-05T09:40:47.735Z,2.20
2022-10-05T09:43:17.221Z,2.03
2022-10-05T09:46:05.898Z,2.17
2022-10-05T09:48:48.221Z,1.80
2022-10-05T09:51:49.764Z,2.05
2022-10-05T09:54:57.180Z,2.00
2022-10-05T10:00:50.149Z,2.00
2022-10-05T10:03:50.752Z,2.00
2022-10-05T10:06:35.185Z,2.00
2022-10-05T10:09:59.172Z,2.30
2022-10-05T10:12:50.075Z,2.00
2022-10-05T10:15:35.436Z,2.15
2022-10-05T10:18:14.446Z,2.25
2022-10-05T10:21:20.130Z,2.28
2022-10-05T10:24:14.772Z,2.28
2022-10-05T10:27:18.838Z,3.00
2022-10-05T10:30:04.017Z,2.85
2022-10-05T10:32:57.606Z,2.55
2022-10-05T10:35:39.987Z,2.72
2022-10-05T10:38:25.122Z,2.47
2022-10-05T10:41:19.369Z,3.00
2022-10-05T10:43:51.665Z,2.67
2022-10-05T10:46:54.029Z,2.50
2022-10-05T10:49:45.073Z,2.75
2022-10-05T10:52:31.890Z,2.70
2022-10-05T10:55:04.450Z,2.53
2022-10-05T10:57:40.184Z,2.80
2022-10-05T11:00:22.438Z,3.13
2022-10-05T11:03:10.912Z,2.72
2022-10-05T11:06:11.035Z,3.60
2022-10-05T11:09:18.296Z,2.83
2022-10-05T11:12:00.108Z,2.95
2022-10-05T11:14:53.424Z,3.40
2022-10-05T11:17:55.608Z,2.65
2022-10-05T11:20:42.155Z,2.65
2022-10-05T11:23:27.212Z,2.20
2022-10-05T11:26:19.669Z,2.92
2022-10-05T11:29:19.684Z,2.13
2022-10-05T11:32:24.030Z,2.35
2022-10-05T11:35:27.235Z,2.22
2022-10-05T11:38:34.063Z,2.67
2022-10-05T11:41:34.676Z,2.65
2022-10-05T11:44:07.596Z,2.50
2022-10-05T11:46:40.384Z,2.42
2022-10-05T11:49:33.939Z,2.67
2022-10-05T11:52:11.807Z,2.25
2022-10-05T11:55:16.388Z,2.50
2022-10-05T11:57:50.368Z,2.05
2022-10-05T12:00:40.545Z,2.33
2022-10-05T12:03:16.437Z,2.25
2022-10-05T12:05:57.256Z,2.17
2022-10-05T12:08:39.943Z,2.30
2022-10-05T12:11:07.074Z,2.20
2022-10-05T12:13:58.437Z,2.15
2022-10-05T12:16:34.387Z,2.28
2022-10-05T12:19:15.347Z,2.10
2022-10-05T12:21:52.060Z,2.22
2022-10-05T12:24:21.250Z,2.00
2022-10-05T12:26:59.058Z,2.10
2022-10-05T12:29:47.497Z,2.10
2022-10-05T12:32:24.881Z,2.03
2022-10-05T12:35:43.507Z,1.92
2022-10-05T12:38:27.333Z,2.08
2022-10-05T12:41:22.697Z,2.10
2022-10-05T12:44:06.051Z,1.80
2022-10-05T12:46:42.465Z,1.98
2022-10-05T12:49:18.645Z,2.25
2022-10-05T12:51:58.063Z,1.83
2022-10-05T12:54:55.063Z,2.00
2022-10-05T12:57:46.390Z,2.28
2022-10-05T13:00:20.305Z,2.10
2022-10-05T13:03:09.601Z,2.00
2022-10-05T13:05:41.512Z,1.95
2022-10-05T13:08:11.278Z,2.28
2022-10-05T13:10:42.441Z,2.25
2022-10-05T13:13:34.264Z,2.30
2022-10-05T13:16:20.425Z,2.28
2022-10-05T13:19:13.520Z,2.35
2022-10-05T13:21:46.106Z,2.13
2022-10-05T13:24:18.899Z,1.95
2022-10-05T13:26:53.144Z,2.25
2022-10-05T13:29:38.762Z,2.08
2022-10-05T13:32:25.462Z,1.90
2022-10-05T13:35:06.718Z,2.30
2022-10-05T13:37:50.992Z,2.30
2022-10-05T13:40:53.700Z,2.00
2022-10-05T13:43:48.036Z,2.10
2022-10-05T13:46:29.319Z,2.15
2022-10-05T13:49:04.993Z,2.22
2022-10-05T13:51:43.831Z,2.35
2022-10-05T13:54:45.289Z,2.35
2022-10-05T13:57:27.891Z,2.33
2022-10-05T13:59:58.885Z,2.10
2022-10-05T14:02:38.845Z,1.95
2022-10-05T14:05:16.827Z,2.03
2022-10-05T14:08:06.206Z,2.10
2022-10-05T14:10:42.627Z,2.10
2022-10-05T14:13:21.463Z,1.88
2022-10-05T14:16:08.299Z,2.10
2022-10-05T14:18:40.126Z,1.80
2022-10-05T14:21:12.903Z,2.60
2022-10-05T14:23:39.722Z,1.92
2022-10-05T14:26:19.249Z,1.92
2022-10-05T14:29:17.480Z,1.80
2022-10-05T14:32:11.297Z,1.80
2022-10-05T14:35:13.208Z,2.00
2022-10-05T14:38:01.047Z,1.70
2022-10-05T14:40:36.929Z,1.58
2022-10-05T14:43:20.571Z,1.90
2022-10-05T14:45:59.898Z,1.88
2022-10-05T14:48:40.794Z,1.60
2022-10-05T14:51:13.366Z,1.92
2022-10-05T14:54:00.892Z,1.73
2022-10-05T14:56:41.026Z,1.70
2022-10-05T14:59:07.476Z,1.60
2022-10-05T15:01:41.133Z,1.42
2022-10-05T15:04:37.928Z,1.40
2022-10-05T15:07:20.568Z,1.80
2022-10-05T15:10:29.578Z,1.60
2022-10-05T15:13:11.366Z,1.67
2022-10-05T15:15:50.737Z,1.35
2022-10-05T15:18:43.366Z,1.17
2022-10-05T15:21:39.564Z,1.60
2022-10-05T15:24:20.955Z,1.38
2022-10-05T15:26:50.687Z,1.83
2022-10-05T15:29:32.334Z,1.63
2022-10-05T15:32:25.157Z,1.90
2022-10-05T15:35:01.232Z,1.35
2022-10-05T15:37:38.096Z,1.58
2022-10-05T15:40:30.470Z,1.75
2022-10-05T15:43:03.963Z,1.80
2022-10-05T15:45:41.884Z,1.70
2022-10-05T15:48:36.000Z,1.50
2022-10-05T15:51:37.766Z,1.85
2022-10-05T15:54:41.874Z,1.90
2022-10-05T15:57:25.029Z,1.70
2022-10-05T15:59:58.275Z,1.63
2022-10-05T16:02:40.001Z,1.95
2022-10-05T16:05:19.983Z,1.60
2022-10-05T16:08:10.334Z,1.83
2022-10-05T16:10:44.056Z,1.50
2022-10-05T16:13:44.401Z,1.50
2022-10-05T16:16:27.366Z,1.48
2022-10-05T16:19:07.007Z,1.70
2022-10-05T16:22:07.777Z,1.58
2022-10-05T16:24:49.246Z,1.58
2022-10-05T16:27:43.570Z,1.20
2022-10-05T16:30:13.902Z,1.45
2022-10-05T16:32:50.908Z,1.67
2022-10-05T16:35:31.033Z,1.52
2022-10-05T16:38:09.883Z,1.48
2022-10-05T16:41:01.894Z,1.33
2022-10-05T16:43:38.256Z,1.45
2022-10-05T16:46:29.714Z,1.15
2022-10-05T16:49:24.251Z,1.35
2022-10-05T16:52:01.942Z,1.50
2022-10-05T16:57:48.753Z,1.67
2022-10-05T17:00:32.934Z,1.90
2022-10-05T17:03:27.352Z,1.55
2022-10-05T17:05:55.975Z,1.60
2022-10-05T17:08:51.072Z,1.70
2022-10-05T17:11:44.954Z,1.52
2022-10-05T17:14:16.264Z,1.85
2022-10-05T17:16:52.664Z,2.00
2022-10-05T17:19:34.309Z,1.63
2022-10-05T17:22:09.318Z,1.67
2022-10-05T17:25:14.390Z,1.50
2022-10-05T17:28:29.731Z,1.85
2022-10-05T17:30:58.889Z,2.03
2022-10-05T17:33:28.982Z,1.85
2022-10-05T17:36:16.647Z,1.77
2022-10-05T17:39:13.869Z,1.77
2022-10-05T17:41:40.526Z,2.15
2022-10-05T17:44:06.945Z,1.65
2022-10-05T17:46:48.745Z,1.85
2022-10-05T17:49:18.150Z,1.60
2022-10-05T17:52:03.292Z,1.73
2022-10-05T17:54:51.092Z,1.67
2022-10-05T17:57:24.182Z,2.58
2022-10-05T17:59:53.686Z,1.70
2022-10-05T18:02:23.372Z,1.60
2022-10-05T18:05:03.324Z,1.50
2022-10-05T18:07:31.614Z,1.88
2022-10-05T18:10:19.343Z,1.92
2022-10-05T18:13:32.291Z,1.67
2022-10-05T18:15:59.465Z,1.67
2022-10-05T18:18:57.633Z,1.90
2022-10-05T18:21:37.249Z,1.75
2022-10-05T18:24:45.058Z,1.77
2022-10-05T18:27:46.010Z,1.80
2022-10-05T18:30:23.070Z,1.65
2022-10-05T18:33:11.461Z,1.80
2022-10-05T18:36:05.920Z,1.73
2022-10-05T18:38:38.650Z,1.83
2022-10-05T18:41:24.194Z,1.30
2022-10-05T18:44:08.751Z,1.55
2022-10-05T18:46:54.751Z,1.70
2022-10-05T18:50:06.477Z,1.38
2022-10-05T18:53:10.931Z,1.40
2022-10-05T18:56:09.123Z,1.60
2022-10-05T18:59:07.903Z,1.70
2022-10-05T19:01:46.532Z,1.67
2022-10-05T19:04:27.352Z,1.85
2022-10-05T19:07:24.853Z,1.48
2022-10-05T19:10:08.968Z,2.00
2022-10-05T19:12:48.507Z,1.60
2022-10-05T19:15:33.781Z,2.05
2022-10-05T19:18:19.701Z,1.95
2022-10-05T19:21:05.935Z,1.60
2022-10-05T19:23:41.587Z,1.75
2022-10-05T19:27:00.314Z,1.88
2022-10-05T19:30:00.729Z,1.60
2022-10-05T19:32:41.938Z,1.55
2022-10-05T19:35:11.464Z,1.80
2022-10-05T19:37:51.601Z,1.77
2022-10-05T19:40:31.502Z,1.73
2022-10-05T19:43:07.695Z,2.90
2022-10-05T19:45:41.756Z,1.83
2022-10-05T19:48:26.228Z,1.60
2022-10-05T19:50:58.685Z,1.60
2022-10-05T19:53:38.565Z,1.30
2022-10-05T19:56:20.901Z,2.53
2022-10-05T19:58:49.424Z,1.50
2022-10-05T20:01:30.854Z,1.58
2022-10-05T20:03:58.461Z,1.17
2022-10-05T20:06:26.940Z,3.97
2022-10-05T20:09:00.918Z,2.33
2022-10-05T20:11:29.386Z,3.35
2022-10-05T20:14:02.277Z,2.50
2022-10-05T20:16:52.835Z,0.60
2022-10-05T20:19:54.207Z,1.48
2022-10-05T20:22:46.335Z,0.40
2022-10-05T20:25:19.213Z,0.68
2022-10-05T20:27:49.115Z,0.50
2022-10-05T20:30:23.743Z,0.73
2022-10-05T20:32:58.393Z,0.40
2022-10-05T20:35:27.899Z,0.80
2022-10-05T20:37:59.420Z,1.00
2022-10-05T20:40:30.626Z,0.50
2022-10-05T20:42:58.460Z,0.50
2022-10-05T20:45:25.305Z,0.63
2022-10-05T20:47:52.406Z,0.63
2022-10-05T20:50:20.864Z,0.80
2022-10-05T20:52:47.900Z,0.65
2022-10-05T20:55:15.788Z,1.00
2022-10-05T20:57:42.835Z,0.52
2022-10-05T21:00:10.965Z,0.93
2022-10-05T21:02:39.479Z,1.02
2022-10-05T21:05:13.774Z,0.82
2022-10-05T21:07:41.286Z,0.77
2022-10-05T21:10:08.437Z,1.00
2022-10-05T21:12:36.120Z,0.80
2022-10-05T21:15:04.783Z,0.60
2022-10-05T21:17:35.214Z,0.60
2022-10-05T21:20:03.775Z,0.50
2022-10-05T21:22:38.499Z,1.08
2022-10-05T21:25:48.398Z,0.38
2022-10-05T21:31:29.895Z,0.57
2022-10-05T21:35:23.160Z,0.45
2022-10-05T21:37:42.989Z,0.30
2022-10-05T21:43:58.680Z,0.63
2022-10-05T21:46:34.186Z,0.47
2022-10-05T21:50:01.674Z,0.40
2022-10-05T22:15:23.318Z,0.95
2022-10-05T22:17:46.341Z,0.40
2022-10-05T22:20:27.597Z,0.45
2022-10-05T22:23:00.154Z,0.50
2022-10-05T22:25:29.687Z,0.60
2022-10-05T22:28:09.132Z,0.50
2022-10-05T22:30:39.428Z,0.60
2022-10-05T22:33:08.556Z,0.70
2022-10-05T22:35:40.232Z,0.50
2022-10-05T22:38:09.628Z,0.68
2022-10-05T22:40:37.151Z,0.60
2022-10-05T22:43:04.927Z,0.80
2022-10-05T22:45:33.288Z,0.80
2022-10-05T22:48:00.443Z,0.77
2022-10-05T22:50:28.194Z,0.80
2022-10-05T22:52:56.419Z,0.70
2022-10-05T22:55:27.637Z,0.77
2022-10-05T22:57:54.359Z,1.00
2022-10-05T23:00:27.579Z,1.25
2022-10-05T23:02:58.533Z,0.77
2022-10-05T23:05:25.228Z,0.70
2022-10-05T23:07:54.475Z,0.82
2022-10-05T23:10:21.169Z,1.05
2022-10-05T23:13:00.325Z,0.95
2022-10-05T23:15:27.588Z,1.00
2022-10-05T23:17:56.161Z,0.95
2022-10-05T23:20:23.818Z,1.00
2022-10-05T23:22:50.757Z,0.85
2022-10-05T23:25:18.062Z,1.17
2022-10-05T23:27:45.272Z,1.00
2022-10-05T23:30:13.003Z,1.70
2022-10-05T23:32:43.558Z,1.00
2022-10-05T23:35:13.644Z,1.10
2022-10-05T23:37:43.023Z,1.60
2022-10-05T23:40:12.259Z,1.35
2022-10-05T23:42:42.902Z,1.15
2022-10-05T23:45:10.738Z,1.17
2022-10-05T23:47:38.627Z,1.13
2022-10-05T23:50:07.110Z,0.95
2022-10-05T23:52:37.808Z,1.30
2022-10-05T23:55:05.842Z,1.33
